Portada
METAR-TAF:

METAR-TAF

Aeroports :

Luang Prabang, Laos

latitud: 19-53N, longitud: 102-08E, altitud: 305 m

Observació

L'informe es va fer fa 10 hores i 59 minuts, a les 13:00 UTC
Vent 4 kt del Nord
Temperatura 23°C
Humitat 78%
Pressió 1014 hPa
Visibilitat 10 km o més
sense núvols per sota de 1500 mi sense presència de cumulonimbus.

METAR: VLLB 211300Z 36004KT CAVOK 23/19 Q1014 NOSIG

Hora: 06:59 (23:59 UTC)

Pronòstic

L'informe es va fer fa 59 minuts, a les 23:00 UTC
Pronòstic vàlid del 22 a les 00 UTC al 22 a les 24 UTC
Vent 4 kt del Nord-Oest
Visibilitat 10 km o més
Núvols disperses a una alçada de 2000 ft
Escasses núvols a una alçada de 6000 ft

TAF: VLLB 212300Z 2200/2224 32004KT 9999 SCT020 FEW060

Observacions i pronòstics meteorològics de més de 4000 aeroports (METAR i TAF).

Les estacions disponibles són els punts grocs i vermells al mapa.

Posi el ratolí al punt desitjat per veure el nom de l'estació.

Feu clic per veure les observacions i els pronòstics meteorològics.

Per canviar el mapa: feu clic els botons verds amb una creu de color negre per apropar; al botó verd amb un guió per allunyar la imatge; o en les fletxes verdes per a mapes adjacents.


METAR-TAF: